Terminal Aerodrome Forecast
Issued by NWS

Home | Current Version | Previous Version | Text Only | Print | Product List | Glossary On
Versions: 1 2 3 4 5 6 7 8 9 10 11 12 13 14 15 16 17 18 19 20 21 22 23 24 25 26
058
FTUS45 KLKN 200530
TAFTPH
TAF
KTPH 200530Z 2006/2106 33008KT P6SM SKC
     FM201300 32008KT P6SM FEW070 BKN250
     FM201700 33025G35KT P6SM BKN200
     FM210500 36012KT P6SM SCT200=

USA.gov is the U.S. government's official web portal to all federal, state and local government web resources and services.